createdAt,value
2022-08-19T10:28:00.558Z,26.10
2022-08-19T10:30:28.689Z,26.30
2022-08-19T10:32:55.359Z,26.50
2022-08-19T10:35:22.509Z,26.80
2022-08-19T10:37:57.327Z,26.70
2022-08-19T10:40:28.792Z,27.00
2022-08-19T10:42:56.433Z,27.00
2022-08-19T10:45:26.426Z,27.00
2022-08-19T10:47:54.942Z,27.00
2022-08-19T10:50:41.187Z,27.00
2022-08-19T10:53:09.794Z,27.10
2022-08-19T10:55:55.062Z,27.00
2022-08-19T10:58:24.502Z,26.90
2022-08-19T11:00:55.646Z,27.20
2022-08-19T11:03:22.605Z,26.80
2022-08-19T11:06:01.751Z,26.40
2022-08-19T11:08:28.486Z,26.30
2022-08-19T11:10:58.381Z,26.10
2022-08-19T11:13:25.590Z,26.20
2022-08-19T11:16:14.692Z,26.60
2022-08-19T11:18:44.492Z,26.40
2022-08-19T11:21:18.145Z,26.50
2022-08-19T11:23:44.754Z,26.60
2022-08-19T11:26:11.794Z,26.70
2022-08-19T11:28:39.591Z,26.90
2022-08-19T11:31:15.073Z,27.00
2022-08-19T11:33:41.834Z,26.90
2022-08-19T11:36:15.059Z,27.00
2022-08-19T11:38:41.916Z,26.80
2022-08-19T11:41:08.529Z,26.80
2022-08-19T11:43:37.687Z,26.80
2022-08-19T11:46:09.342Z,26.30
2022-08-19T11:48:36.447Z,26.40
2022-08-19T11:51:12.515Z,25.80
2022-08-19T11:53:39.608Z,25.80
2022-08-19T11:56:07.461Z,26.20
2022-08-19T11:58:35.069Z,26.10
2022-08-19T12:01:01.857Z,25.80
2022-08-19T12:03:28.983Z,25.80
2022-08-19T12:05:55.703Z,25.70
2022-08-19T12:08:22.510Z,26.00
2022-08-19T12:10:49.125Z,26.00
2022-08-19T12:13:19.496Z,25.70
2022-08-19T12:15:47.559Z,25.90
2022-08-19T12:18:17.463Z,26.20
2022-08-19T12:20:44.251Z,26.50
2022-08-19T12:23:11.211Z,26.50
2022-08-19T12:25:39.237Z,26.50
2022-08-19T12:28:05.798Z,26.60
2022-08-19T12:30:32.337Z,26.10
2022-08-19T12:32:58.844Z,25.70
2022-08-19T12:35:25.527Z,25.70
2022-08-19T12:37:56.666Z,25.70
2022-08-19T12:40:26.293Z,25.90
2022-08-19T12:42:54.263Z,25.80
2022-08-19T12:45:20.892Z,26.20
2022-08-19T12:47:47.805Z,26.30
2022-08-19T12:50:16.194Z,26.40
2022-08-19T12:52:43.363Z,26.20
2022-08-19T12:55:11.541Z,26.30
2022-08-19T12:57:38.625Z,26.60
2022-08-19T13:00:12.814Z,26.30
2022-08-19T13:02:45.122Z,26.20
2022-08-19T13:05:13.703Z,26.20
2022-08-19T13:07:41.821Z,26.20
2022-08-19T13:10:10.047Z,26.20
2022-08-19T13:12:36.653Z,26.60
2022-08-19T13:15:03.717Z,26.80
2022-08-19T13:17:39.015Z,27.00
2022-08-19T13:20:08.826Z,27.00
2022-08-19T13:22:37.028Z,27.10
2022-08-19T13:25:06.261Z,27.00
2022-08-19T13:27:32.888Z,27.10
2022-08-19T13:30:17.979Z,26.70
2022-08-19T13:33:03.260Z,26.60
2022-08-19T13:35:29.939Z,26.50
2022-08-19T13:37:56.537Z,26.90
2022-08-19T13:40:27.134Z,27.10
2022-08-19T13:42:55.594Z,27.00
2022-08-19T13:45:25.252Z,26.90
2022-08-19T13:47:57.097Z,26.90
2022-08-19T13:50:29.714Z,26.60
2022-08-19T13:52:57.112Z,26.80
2022-08-19T13:55:25.351Z,27.10
2022-08-19T13:58:00.987Z,27.10
2022-08-19T14:00:29.574Z,26.90
2022-08-19T14:02:56.820Z,26.80
2022-08-19T14:05:23.910Z,26.50
2022-08-19T14:07:50.627Z,26.30
2022-08-19T14:10:19.722Z,26.30
2022-08-19T14:12:47.248Z,26.00
2022-08-19T14:15:14.902Z,26.30
2022-08-19T14:17:43.076Z,26.10
2022-08-19T14:20:17.444Z,25.90
2022-08-19T14:22:45.482Z,26.00
2022-08-19T14:25:16.278Z,26.20
2022-08-19T14:27:43.223Z,25.70
2022-08-19T14:30:13.475Z,25.50
2022-08-19T14:32:40.135Z,25.80
2022-08-19T14:35:08.347Z,25.70
2022-08-19T14:37:45.198Z,25.60
2022-08-19T14:40:14.584Z,25.80
2022-08-19T14:42:42.237Z,25.70
2022-08-19T14:45:09.489Z,25.90
2022-08-19T14:47:36.321Z,26.00
2022-08-19T14:50:17.715Z,25.50
2022-08-19T14:52:48.675Z,25.60
2022-08-19T14:55:16.775Z,25.70
2022-08-19T14:57:44.688Z,25.80
2022-08-19T15:00:14.991Z,25.80
2022-08-19T15:02:42.601Z,25.70
2022-08-19T15:05:09.693Z,25.70
2022-08-19T15:07:36.575Z,25.50
2022-08-19T15:10:04.568Z,25.50
2022-08-19T15:12:31.380Z,25.60
2022-08-19T15:14:57.912Z,25.90
2022-08-19T15:17:32.409Z,25.60
2022-08-19T15:20:14.304Z,25.50
2022-08-19T15:22:41.288Z,25.60
2022-08-19T15:25:11.607Z,25.90
2022-08-19T15:27:40.578Z,25.50
2022-08-19T15:30:11.819Z,25.60
2022-08-19T15:32:39.271Z,25.90
2022-08-19T15:35:07.100Z,25.60
2022-08-19T15:37:37.420Z,25.70
2022-08-19T15:40:06.141Z,25.60
2022-08-19T15:42:33.445Z,25.90
2022-08-19T15:45:02.512Z,25.90
2022-08-19T15:47:34.804Z,25.70
2022-08-19T15:50:10.595Z,25.90
2022-08-19T15:52:48.333Z,25.90
2022-08-19T15:55:32.505Z,26.00
2022-08-19T15:58:29.838Z,25.70
2022-08-19T16:01:21.168Z,25.40
2022-08-19T16:04:11.333Z,25.30
2022-08-19T16:06:49.518Z,25.20
2022-08-19T16:09:17.360Z,25.20
2022-08-19T16:11:46.215Z,25.20
2022-08-19T16:14:18.517Z,25.50
2022-08-19T16:16:46.846Z,25.50
2022-08-19T16:19:15.708Z,25.70
2022-08-19T16:21:46.519Z,26.00
2022-08-19T16:24:15.208Z,26.10
2022-08-19T16:26:42.361Z,26.40
2022-08-19T16:29:13.073Z,26.20
2022-08-19T16:31:42.167Z,26.00
2022-08-19T16:34:08.955Z,25.80
2022-08-19T16:36:35.779Z,25.70
2022-08-19T16:39:03.519Z,26.10
2022-08-19T16:41:30.070Z,26.20
2022-08-19T16:43:56.610Z,26.00
2022-08-19T16:46:26.943Z,25.70
2022-08-19T16:48:54.503Z,25.70
2022-08-19T16:51:22.706Z,25.60
2022-08-19T16:53:51.945Z,25.90
2022-08-19T16:56:19.513Z,26.20
2022-08-19T16:58:46.086Z,25.50
2022-08-19T17:01:13.732Z,25.60
2022-08-19T17:03:40.411Z,25.60
2022-08-19T17:06:20.489Z,25.50
2022-08-19T17:08:51.804Z,25.70
2022-08-19T17:11:19.820Z,26.10
2022-08-19T17:13:47.913Z,25.40
2022-08-19T17:16:16.907Z,25.40
2022-08-19T17:18:44.336Z,25.60
2022-08-19T17:21:13.953Z,25.80
2022-08-19T17:23:43.273Z,25.60
2022-08-19T17:26:18.082Z,25.60
2022-08-19T17:28:50.478Z,25.80
2022-08-19T17:31:19.396Z,25.60
2022-08-19T17:33:48.556Z,25.30
2022-08-19T17:36:29.296Z,24.90
2022-08-19T17:38:58.143Z,25.10
2022-08-19T17:41:25.758Z,25.30
2022-08-19T17:43:52.625Z,25.50
2022-08-19T17:46:22.547Z,25.70
2022-08-19T17:48:52.767Z,25.90
2022-08-19T17:51:40.613Z,26.10
2022-08-19T17:54:11.891Z,26.00
2022-08-19T17:56:38.503Z,25.70
2022-08-19T17:59:05.943Z,25.80
2022-08-19T18:01:43.820Z,25.90
2022-08-19T18:04:18.660Z,26.10
2022-08-19T18:06:46.919Z,26.10
2022-08-19T18:09:41.729Z,25.70
2022-08-19T18:12:11.054Z,25.90
2022-08-19T18:14:39.165Z,25.80
2022-08-19T18:17:17.294Z,25.30
2022-08-19T18:19:44.269Z,25.90
2022-08-19T18:22:22.503Z,26.20
2022-08-19T18:24:49.284Z,26.10
2022-08-19T18:27:15.802Z,26.20
2022-08-19T18:29:43.252Z,26.10
2022-08-19T18:32:24.069Z,26.10
2022-08-19T18:34:51.208Z,25.70
2022-08-19T18:37:17.714Z,25.40
2022-08-19T18:40:03.337Z,25.20
2022-08-19T18:42:48.523Z,25.00
2022-08-19T18:45:33.343Z,25.00
2022-08-19T18:48:26.893Z,24.90
2022-08-19T18:50:55.697Z,25.00
2022-08-19T18:53:22.233Z,24.70
2022-08-19T18:55:51.815Z,24.40
2022-08-19T18:58:18.377Z,24.40
2022-08-19T19:00:44.892Z,24.50
2022-08-19T19:03:11.630Z,24.60
2022-08-19T19:05:39.829Z,24.90
2022-08-19T19:08:07.041Z,24.60
2022-08-19T19:10:35.385Z,24.60
2022-08-19T19:13:01.991Z,24.80
2022-08-19T19:15:29.384Z,25.10
2022-08-19T19:17:56.072Z,24.90
2022-08-19T19:20:35.104Z,25.20
2022-08-19T19:23:03.029Z,25.30
2022-08-19T19:25:50.730Z,25.10
2022-08-19T19:28:16.414Z,25.10
2022-08-19T19:30:42.945Z,25.30
2022-08-19T19:33:09.450Z,24.60
2022-08-19T19:35:36.001Z,24.50
2022-08-19T19:38:02.543Z,24.60
2022-08-19T19:40:29.366Z,24.90
2022-08-19T19:42:55.939Z,25.10
2022-08-19T19:45:22.817Z,25.30
2022-08-19T19:47:50.074Z,25.00
2022-08-19T19:50:17.846Z,24.40
2022-08-19T19:52:45.905Z,24.50
2022-08-19T19:55:17.763Z,24.50
2022-08-19T19:57:48.709Z,24.60
2022-08-19T20:00:18.666Z,24.50
2022-08-19T20:02:49.598Z,24.90
2022-08-19T20:05:18.274Z,25.10
2022-08-19T20:08:03.467Z,24.80
2022-08-19T20:10:33.219Z,24.80
2022-08-19T20:13:02.319Z,25.00
2022-08-19T20:15:29.389Z,25.10
2022-08-19T20:17:56.124Z,24.70
2022-08-19T20:20:23.579Z,25.10
2022-08-19T20:22:50.093Z,24.90
2022-08-19T20:25:18.588Z,24.80
2022-08-19T20:27:49.077Z,24.90
2022-08-19T20:30:19.303Z,25.00
2022-08-19T20:32:46.970Z,25.20
2022-08-19T20:35:14.973Z,25.20
2022-08-19T20:37:41.574Z,25.30
2022-08-19T20:40:13.265Z,25.30
2022-08-19T20:42:41.458Z,24.90
2022-08-19T20:45:16.402Z,24.80
2022-08-19T20:47:57.497Z,24.70
2022-08-19T20:50:24.038Z,25.10
2022-08-19T20:52:53.389Z,25.30
2022-08-19T20:55:21.903Z,25.00
2022-08-19T20:57:48.461Z,25.20
2022-08-19T21:00:15.344Z,25.20
2022-08-19T21:02:41.884Z,24.90
2022-08-19T21:05:08.509Z,24.90
2022-08-19T21:07:39.002Z,24.80
2022-08-19T21:10:06.787Z,24.50
2022-08-19T21:12:33.364Z,25.00
2022-08-19T21:14:59.893Z,25.30
2022-08-19T21:17:26.402Z,25.10
2022-08-19T21:19:52.952Z,24.60
2022-08-19T21:22:19.537Z,24.90
2022-08-19T21:24:46.062Z,24.60
2022-08-19T21:27:12.581Z,24.80
2022-08-19T21:29:40.456Z,25.00
2022-08-19T21:32:07.552Z,24.90
2022-08-19T21:34:34.214Z,24.80
2022-08-19T21:37:00.787Z,24.50
2022-08-19T21:39:27.293Z,24.90
2022-08-19T21:41:54.301Z,24.50
2022-08-19T21:44:20.896Z,24.20
2022-08-19T21:46:50.715Z,24.20
2022-08-19T21:49:17.496Z,24.70
2022-08-19T21:51:44.160Z,24.90
2022-08-19T21:54:14.155Z,25.20
2022-08-19T21:56:41.466Z,24.60
2022-08-19T21:59:08.727Z,24.40
2022-08-19T22:01:35.756Z,24.70
2022-08-19T22:04:02.265Z,24.60
2022-08-19T22:06:28.888Z,24.40
2022-08-19T22:08:55.657Z,24.30
2022-08-19T22:11:23.656Z,24.30
2022-08-19T22:13:53.687Z,24.70
2022-08-19T22:16:21.252Z,24.70
2022-08-19T22:18:49.169Z,25.00
2022-08-19T22:21:15.673Z,25.00
2022-08-19T22:23:57.877Z,24.70
2022-08-19T22:26:24.366Z,24.10
2022-08-19T22:28:50.885Z,24.20
2022-08-19T22:31:18.342Z,24.40
2022-08-19T22:33:45.181Z,24.80
2022-08-19T22:36:12.233Z,24.60
2022-08-19T22:38:38.774Z,24.40
2022-08-19T22:41:07.659Z,23.90
2022-08-19T22:43:34.634Z,23.90
2022-08-19T22:46:01.341Z,23.80
2022-08-19T22:48:30.265Z,23.80
2022-08-19T22:51:15.711Z,24.10
2022-08-19T22:53:45.082Z,24.50
2022-08-19T22:56:15.339Z,24.20
2022-08-19T22:58:42.492Z,24.10
2022-08-19T23:01:11.592Z,24.20
2022-08-19T23:03:43.445Z,24.30
2022-08-19T23:06:10.212Z,24.20
2022-08-19T23:08:39.631Z,24.50
2022-08-19T23:11:06.835Z,24.40
2022-08-19T23:13:36.233Z,24.30
2022-08-19T23:16:03.120Z,23.80
2022-08-19T23:18:29.631Z,23.70
2022-08-19T23:20:56.340Z,23.60
2022-08-19T23:23:24.698Z,23.60
2022-08-19T23:25:52.813Z,24.10
2022-08-19T23:28:38.445Z,24.30
2022-08-19T23:31:05.811Z,24.20
2022-08-19T23:33:46.432Z,23.80
2022-08-19T23:36:19.275Z,24.00
2022-08-19T23:38:48.010Z,23.90
2022-08-19T23:41:15.007Z,24.00
2022-08-19T23:43:42.870Z,23.90
2022-08-19T23:46:11.439Z,24.20
2022-08-19T23:48:39.781Z,23.90
2022-08-19T23:51:09.367Z,24.10
2022-08-19T23:53:37.957Z,24.20
2022-08-19T23:56:07.096Z,24.10
2022-08-19T23:58:35.406Z,24.40
